createdAt,value
2022-08-19T00:01:53.346Z,13.77
2022-08-19T00:04:25.425Z,13.75
2022-08-19T00:06:53.907Z,13.71
2022-08-19T00:09:23.794Z,13.69
2022-08-19T00:11:54.488Z,13.67
2022-08-19T00:14:23.289Z,13.66
2022-08-19T00:16:52.576Z,13.66
2022-08-19T00:19:20.182Z,13.66
2022-08-19T00:21:48.160Z,13.66
2022-08-19T00:24:16.573Z,13.68
2022-08-19T00:26:46.591Z,13.66
2022-08-19T00:29:17.166Z,13.66
2022-08-19T00:31:45.349Z,13.65
2022-08-19T00:34:14.695Z,13.65
2022-08-19T00:36:43.333Z,13.63
2022-08-19T00:39:11.697Z,13.62
2022-08-19T00:41:39.694Z,13.61
2022-08-19T00:44:14.488Z,13.58
2022-08-19T00:46:51.611Z,13.57
2022-08-19T00:49:54.861Z,13.55
2022-08-19T00:52:29.931Z,13.54
2022-08-19T00:54:58.884Z,13.54
2022-08-19T00:57:36.146Z,13.54
2022-08-19T01:00:07.602Z,13.53
2022-08-19T01:02:35.256Z,13.52
2022-08-19T01:05:07.502Z,13.52
2022-08-19T01:07:38.202Z,13.52
2022-08-19T01:10:14.012Z,13.50
2022-08-19T01:12:41.779Z,13.49
2022-08-19T01:15:12.269Z,13.45
2022-08-19T01:17:41.959Z,13.45
2022-08-19T01:20:16.064Z,13.46
2022-08-19T01:22:56.351Z,13.48
2022-08-19T01:25:34.089Z,13.48
2022-08-19T01:28:09.960Z,13.49
2022-08-19T01:30:38.836Z,13.49
2022-08-19T01:33:07.039Z,13.49
2022-08-19T01:35:36.957Z,13.47
2022-08-19T01:38:09.332Z,13.44
2022-08-19T01:40:40.445Z,13.42
2022-08-19T01:43:08.971Z,13.44
2022-08-19T01:45:37.019Z,13.44
2022-08-19T01:48:04.872Z,13.45
2022-08-19T01:50:34.329Z,13.46
2022-08-19T01:53:07.612Z,13.48
2022-08-19T01:55:41.549Z,13.48
2022-08-19T01:58:15.745Z,13.51
2022-08-19T02:00:44.382Z,13.53
2022-08-19T02:03:12.466Z,13.59
2022-08-19T02:05:41.776Z,13.66
2022-08-19T02:08:10.406Z,13.74
2022-08-19T02:10:43.697Z,13.79
2022-08-19T02:13:13.183Z,13.85
2022-08-19T02:15:41.386Z,13.87
2022-08-19T02:18:09.444Z,13.85
2022-08-19T02:20:38.865Z,13.84
2022-08-19T02:23:13.514Z,13.79
2022-08-19T02:25:42.673Z,13.75
2022-08-19T02:28:10.263Z,13.70
2022-08-19T02:30:39.243Z,13.65
2022-08-19T02:33:06.857Z,13.63
2022-08-19T02:35:34.422Z,13.59
2022-08-19T02:38:20.490Z,13.53
2022-08-19T02:40:53.894Z,13.53
2022-08-19T02:43:22.673Z,13.52
2022-08-19T02:45:50.788Z,13.51
2022-08-19T02:48:23.901Z,13.52
2022-08-19T02:50:56.300Z,13.50
2022-08-19T02:53:28.056Z,13.54
2022-08-19T02:55:55.632Z,13.56
2022-08-19T02:58:25.030Z,13.59
2022-08-19T03:00:56.308Z,13.60
2022-08-19T03:03:24.542Z,13.62
2022-08-19T03:05:57.009Z,13.60
2022-08-19T03:08:26.631Z,13.57
2022-08-19T03:10:55.030Z,13.59
2022-08-19T03:13:23.647Z,13.59
2022-08-19T03:15:51.298Z,13.59
2022-08-19T03:18:18.934Z,13.58
2022-08-19T03:20:53.943Z,13.54
2022-08-19T03:23:22.378Z,13.52
2022-08-19T03:26:02.834Z,13.46
2022-08-19T03:28:39.832Z,13.40
2022-08-19T03:31:41.442Z,13.35
2022-08-19T03:33:59.897Z,13.28
2022-08-19T03:36:28.651Z,13.23
2022-08-19T03:39:00.587Z,13.18
2022-08-19T03:41:34.332Z,13.14
2022-08-19T03:44:16.913Z,13.09
2022-08-19T03:46:49.132Z,13.05
2022-08-19T03:49:18.274Z,13.03
2022-08-19T03:51:48.754Z,13.01
2022-08-19T03:54:20.741Z,12.99
2022-08-19T03:56:49.861Z,12.97
2022-08-19T03:59:21.041Z,12.95
2022-08-19T04:01:48.789Z,12.93
2022-08-19T04:04:16.421Z,12.92
2022-08-19T04:06:45.479Z,12.90
2022-08-19T04:09:13.029Z,12.88
2022-08-19T04:11:51.129Z,12.86
2022-08-19T04:14:22.257Z,12.85
2022-08-19T04:16:50.218Z,12.86
2022-08-19T04:19:19.902Z,12.91
2022-08-19T04:21:50.116Z,12.96
2022-08-19T04:24:18.523Z,13.03
2022-08-19T04:26:48.121Z,13.10
2022-08-19T04:29:22.968Z,13.19
2022-08-19T04:31:51.017Z,13.24
2022-08-19T04:34:23.341Z,13.26
2022-08-19T04:36:52.515Z,13.24
2022-08-19T04:39:46.300Z,13.22
2022-08-19T04:42:33.006Z,13.20
2022-08-19T04:45:00.949Z,13.19
2022-08-19T04:47:47.675Z,13.15
2022-08-19T04:50:16.605Z,13.16
2022-08-19T04:52:46.655Z,13.15
2022-08-19T04:55:14.713Z,13.17
2022-08-19T04:57:42.751Z,13.20
2022-08-19T05:00:11.288Z,13.26
2022-08-19T05:02:39.683Z,13.33
2022-08-19T05:05:07.957Z,13.40
2022-08-19T05:07:36.740Z,13.46
2022-08-19T05:10:06.301Z,13.50
2022-08-19T05:12:34.486Z,13.51
2022-08-19T05:15:04.935Z,13.54
2022-08-19T05:17:38.110Z,13.57
2022-08-19T05:20:26.651Z,13.64
2022-08-19T05:22:54.686Z,13.68
2022-08-19T05:25:23.374Z,13.74
2022-08-19T05:27:51.031Z,13.80
2022-08-19T05:30:18.644Z,13.84
2022-08-19T05:32:52.161Z,13.87
2022-08-19T05:35:24.813Z,13.91
2022-08-19T05:37:59.035Z,13.95
2022-08-19T05:40:26.898Z,14.01
2022-08-19T05:42:57.024Z,14.03
2022-08-19T05:45:25.699Z,14.08
2022-08-19T05:47:53.219Z,14.12
2022-08-19T05:50:21.635Z,14.15
2022-08-19T05:52:50.729Z,14.17
2022-08-19T05:55:21.302Z,14.20
2022-08-19T05:57:49.404Z,14.21
2022-08-19T06:00:21.408Z,14.23
2022-08-19T06:02:52.889Z,14.26
2022-08-19T06:05:21.138Z,14.27
2022-08-19T06:07:48.740Z,14.31
2022-08-19T06:10:16.419Z,14.36
2022-08-19T06:12:43.992Z,14.38
2022-08-19T06:15:20.975Z,14.41
2022-08-19T06:17:49.051Z,14.42
2022-08-19T06:20:29.659Z,14.43
2022-08-19T06:23:06.488Z,14.45
2022-08-19T06:25:34.024Z,14.52
2022-08-19T06:28:17.475Z,14.58
2022-08-19T06:30:45.683Z,14.70
2022-08-19T06:33:13.339Z,15.38
2022-08-19T06:35:42.166Z,16.05
2022-08-19T06:38:10.558Z,16.43
2022-08-19T06:40:39.343Z,16.44
2022-08-19T06:43:08.589Z,16.35
2022-08-19T06:45:39.764Z,16.38
2022-08-19T06:48:08.438Z,16.46
2022-08-19T06:50:36.719Z,16.51
2022-08-19T06:53:08.319Z,16.56
2022-08-19T06:55:35.890Z,16.58
2022-08-19T06:58:05.340Z,16.38
2022-08-19T07:00:33.679Z,16.16
2022-08-19T07:03:04.592Z,15.93
2022-08-19T07:05:45.994Z,15.78
2022-08-19T07:08:14.967Z,15.68
2022-08-19T07:10:46.732Z,15.57
2022-08-19T07:13:14.786Z,15.43
2022-08-19T07:15:42.962Z,15.33
2022-08-19T07:18:11.654Z,15.27
2022-08-19T07:20:42.060Z,15.31
2022-08-19T07:23:16.063Z,15.34
2022-08-19T07:25:45.281Z,15.46
2022-08-19T07:28:24.024Z,15.64
2022-08-19T07:30:53.328Z,15.73
2022-08-19T07:33:21.353Z,15.75
2022-08-19T07:35:49.937Z,15.78
2022-08-19T07:38:18.320Z,15.84
2022-08-19T07:40:46.992Z,15.98
2022-08-19T07:43:17.950Z,16.13
2022-08-19T07:45:46.529Z,16.33
2022-08-19T07:48:15.448Z,16.53
2022-08-19T07:50:43.422Z,16.73
2022-08-19T07:53:11.129Z,17.38
2022-08-19T07:55:41.390Z,18.41
2022-08-19T07:58:14.564Z,19.06
2022-08-19T08:00:44.043Z,19.07
2022-08-19T08:03:12.753Z,18.92
2022-08-19T08:05:58.982Z,18.60
2022-08-19T08:08:47.931Z,18.24
2022-08-19T08:11:19.170Z,18.06
2022-08-19T08:14:01.209Z,17.96
2022-08-19T08:16:39.582Z,17.88
2022-08-19T08:19:22.961Z,17.63
2022-08-19T08:21:55.618Z,17.35
2022-08-19T08:24:23.735Z,17.27
2022-08-19T08:26:57.913Z,17.19
2022-08-19T08:29:35.125Z,17.01
2022-08-19T08:32:03.492Z,16.86
2022-08-19T08:34:31.024Z,16.81
2022-08-19T08:36:58.587Z,16.78
2022-08-19T08:39:26.282Z,16.62
2022-08-19T08:42:10.309Z,16.43
2022-08-19T08:45:06.051Z,16.31
2022-08-19T08:47:42.105Z,16.37
2022-08-19T08:50:23.898Z,16.58
2022-08-19T08:52:58.164Z,17.60
2022-08-19T08:55:37.116Z,18.14
2022-08-19T08:58:15.093Z,18.26
2022-08-19T09:00:47.845Z,18.06
2022-08-19T09:03:23.879Z,17.82
2022-08-19T09:05:57.422Z,17.89
2022-08-19T09:08:44.336Z,18.55
2022-08-19T09:11:42.180Z,18.64
2022-08-19T09:14:49.296Z,18.46
2022-08-19T09:17:13.636Z,18.07
2022-08-19T09:20:05.973Z,18.11
2022-08-19T09:22:41.211Z,18.59
2022-08-19T09:25:10.760Z,18.31
2022-08-19T09:27:43.027Z,18.18
2022-08-19T09:30:20.536Z,18.24
2022-08-19T09:32:52.870Z,18.81
2022-08-19T09:35:28.445Z,19.09
2022-08-19T09:37:59.564Z,19.06
2022-08-19T09:40:30.120Z,18.81
2022-08-19T09:43:11.479Z,18.47
2022-08-19T09:45:41.143Z,18.30
2022-08-19T09:48:09.604Z,18.27
2022-08-19T09:50:51.473Z,18.12
2022-08-19T09:53:25.181Z,17.91
2022-08-19T09:55:55.941Z,18.16
2022-08-19T09:58:28.622Z,19.00
2022-08-19T10:00:57.534Z,19.22
2022-08-19T10:03:29.895Z,19.34
2022-08-19T10:06:00.083Z,19.39
2022-08-19T10:08:31.645Z,19.83
2022-08-19T10:10:59.916Z,19.73
2022-08-19T10:13:48.525Z,19.39
2022-08-19T10:16:21.205Z,19.11
2022-08-19T10:18:49.890Z,18.78
2022-08-19T10:21:25.608Z,18.44
2022-08-19T10:23:55.763Z,18.23
2022-08-19T10:26:26.736Z,18.20
2022-08-19T10:28:55.252Z,18.99
2022-08-19T10:32:00.358Z,19.78
2022-08-19T10:34:27.394Z,20.80
2022-08-19T10:37:01.183Z,21.86
2022-08-19T10:39:42.365Z,22.08
2022-08-19T10:42:14.762Z,22.25
2022-08-19T10:44:42.880Z,22.41
2022-08-19T10:47:24.489Z,22.23
2022-08-19T10:50:13.792Z,22.73
2022-08-19T10:52:48.903Z,23.05
2022-08-19T10:55:39.382Z,22.80
2022-08-19T10:58:22.327Z,22.59
2022-08-19T11:00:55.329Z,22.25
2022-08-19T11:03:24.086Z,21.66
2022-08-19T11:06:02.768Z,21.97
2022-08-19T11:08:31.758Z,21.98
2022-08-19T11:11:02.173Z,21.21
2022-08-19T11:13:37.070Z,21.23
2022-08-19T11:16:07.931Z,21.41
2022-08-19T11:18:38.289Z,22.30
2022-08-19T11:21:12.065Z,23.03
2022-08-19T11:23:40.798Z,23.62
2022-08-19T11:26:08.655Z,23.78
2022-08-19T11:28:37.188Z,23.16
2022-08-19T11:31:04.984Z,22.72
2022-08-19T11:33:33.785Z,22.39
2022-08-19T11:36:02.229Z,21.82
2022-08-19T11:38:30.279Z,22.73
2022-08-19T11:41:05.196Z,23.11
2022-08-19T11:43:37.178Z,23.02
2022-08-19T11:46:08.044Z,23.06
2022-08-19T11:48:36.869Z,23.21
2022-08-19T11:51:11.738Z,23.88
2022-08-19T11:53:39.735Z,24.27
2022-08-19T11:56:09.174Z,24.18
2022-08-19T11:58:37.366Z,23.72
2022-08-19T12:01:09.729Z,23.35
2022-08-19T12:03:37.714Z,23.95
2022-08-19T12:06:14.320Z,24.58
2022-08-19T12:08:44.051Z,24.98
2022-08-19T12:11:13.513Z,25.23
2022-08-19T12:13:42.221Z,24.49
2022-08-19T12:16:20.003Z,23.63
2022-08-19T12:18:48.362Z,23.38
2022-08-19T12:21:18.573Z,23.99
2022-08-19T12:23:46.598Z,24.85
2022-08-19T12:26:14.358Z,25.42
2022-08-19T12:28:42.538Z,24.78
2022-08-19T12:31:13.136Z,24.29
2022-08-19T12:33:42.251Z,23.66
2022-08-19T12:36:12.200Z,23.21
2022-08-19T12:38:41.317Z,22.86
2022-08-19T12:41:13.784Z,23.22
2022-08-19T12:43:42.897Z,23.49
2022-08-19T12:46:11.796Z,23.50
2022-08-19T12:48:43.704Z,23.95
2022-08-19T12:51:14.411Z,23.16
2022-08-19T12:53:42.999Z,22.94
2022-08-19T12:56:12.825Z,23.45
2022-08-19T12:58:50.794Z,23.88
2022-08-19T13:01:22.609Z,23.50
2022-08-19T13:03:53.638Z,23.25
2022-08-19T13:06:21.465Z,22.86
2022-08-19T13:08:49.124Z,22.15
2022-08-19T13:11:19.834Z,21.74
2022-08-19T13:13:51.333Z,21.37
2022-08-19T13:16:21.301Z,21.25
2022-08-19T13:18:49.403Z,21.30
2022-08-19T13:21:17.026Z,21.23
2022-08-19T13:23:44.725Z,21.37
2022-08-19T13:26:13.897Z,21.43
2022-08-19T13:29:01.443Z,21.38
2022-08-19T13:31:51.548Z,21.59
2022-08-19T13:34:40.461Z,22.21
2022-08-19T13:37:08.610Z,22.58
2022-08-19T13:39:36.904Z,22.61
2022-08-19T13:42:05.823Z,22.45
2022-08-19T13:44:33.754Z,22.39
2022-08-19T13:47:10.895Z,22.10
2022-08-19T13:49:38.492Z,21.96
2022-08-19T13:52:06.912Z,21.70
2022-08-19T13:54:34.542Z,21.55
2022-08-19T13:57:02.089Z,21.54
2022-08-19T13:59:29.641Z,21.50
2022-08-19T14:02:01.587Z,21.47
2022-08-19T14:04:29.465Z,21.44
2022-08-19T14:06:57.078Z,21.41
2022-08-19T14:09:24.691Z,21.67
2022-08-19T14:11:52.571Z,21.94
2022-08-19T14:14:20.114Z,22.02
2022-08-19T14:16:47.753Z,22.03
2022-08-19T14:19:15.504Z,21.76
2022-08-19T14:21:43.079Z,21.26
2022-08-19T14:24:10.751Z,20.91
2022-08-19T14:26:38.312Z,20.72
2022-08-19T14:29:05.853Z,20.80
2022-08-19T14:31:33.388Z,20.94
2022-08-19T14:34:00.938Z,21.06
2022-08-19T14:36:28.522Z,20.74
2022-08-19T14:38:56.257Z,20.56
2022-08-19T14:41:24.775Z,20.57
2022-08-19T14:43:53.940Z,20.68
2022-08-19T14:46:25.131Z,20.55
2022-08-19T14:48:53.558Z,20.44
2022-08-19T14:51:22.629Z,20.31
2022-08-19T14:53:51.374Z,20.22
2022-08-19T14:56:22.166Z,20.11
2022-08-19T14:58:52.696Z,20.12
2022-08-19T15:01:23.213Z,20.10
2022-08-19T15:03:53.799Z,20.06
2022-08-19T15:06:24.005Z,19.90
2022-08-19T15:08:52.788Z,19.80
2022-08-19T15:11:23.694Z,19.52
2022-08-19T15:13:51.625Z,19.17
2022-08-19T15:16:19.634Z,18.95
2022-08-19T15:18:51.433Z,18.78
2022-08-19T15:21:26.942Z,18.69
2022-08-19T15:23:57.700Z,18.72
2022-08-19T15:26:27.367Z,18.80
2022-08-19T15:28:55.133Z,18.78
2022-08-19T15:31:27.973Z,18.85
2022-08-19T15:33:59.329Z,19.02
2022-08-19T15:36:28.474Z,19.00
2022-08-19T15:38:57.571Z,18.90
2022-08-19T15:41:29.454Z,18.89
2022-08-19T15:44:01.144Z,18.96
2022-08-19T15:46:32.211Z,18.85
2022-08-19T15:49:00.723Z,18.73
2022-08-19T15:51:30.539Z,18.72
2022-08-19T15:53:59.139Z,18.77
2022-08-19T15:56:27.524Z,18.95
2022-08-19T15:59:13.723Z,19.03
2022-08-19T16:01:59.785Z,19.05
2022-08-19T16:04:45.931Z,18.95
2022-08-19T16:07:13.524Z,18.61
2022-08-19T16:09:41.122Z,18.08
2022-08-19T16:12:10.563Z,17.54
2022-08-19T16:14:38.397Z,17.05
2022-08-19T16:17:06.338Z,16.67
2022-08-19T16:19:33.920Z,16.47
2022-08-19T16:22:02.002Z,16.34
2022-08-19T16:24:29.837Z,16.31
2022-08-19T16:26:57.541Z,16.40
2022-08-19T16:29:34.656Z,16.53
2022-08-19T16:32:10.960Z,16.76
2022-08-19T16:34:42.456Z,16.97
2022-08-19T16:37:10.347Z,17.07
2022-08-19T16:39:38.505Z,17.08
2022-08-19T16:42:07.984Z,17.10
2022-08-19T16:44:36.790Z,17.09
2022-08-19T16:47:04.418Z,17.00
2022-08-19T16:49:53.748Z,16.89
2022-08-19T16:52:20.215Z,16.85
2022-08-19T16:54:48.701Z,16.81
2022-08-19T16:57:16.628Z,16.82
2022-08-19T16:59:48.664Z,16.78
2022-08-19T17:02:19.387Z,16.77
2022-08-19T17:04:57.946Z,16.79
2022-08-19T17:07:27.888Z,16.80
2022-08-19T17:09:56.660Z,16.80
2022-08-19T17:12:32.239Z,16.81
2022-08-19T17:15:02.635Z,16.87
2022-08-19T17:17:31.507Z,16.89
2022-08-19T17:20:00.703Z,16.88
2022-08-19T17:22:29.071Z,16.88
2022-08-19T17:24:58.001Z,16.85
2022-08-19T17:27:41.973Z,16.88
2022-08-19T17:30:09.884Z,16.90
2022-08-19T17:32:37.401Z,16.92
2022-08-19T17:35:05.474Z,16.93
2022-08-19T17:37:34.255Z,16.89
2022-08-19T17:40:07.505Z,16.88
2022-08-19T17:42:36.757Z,16.90
2022-08-19T17:45:05.819Z,16.88
2022-08-19T17:47:33.513Z,16.86
2022-08-19T17:50:01.070Z,16.85
2022-08-19T17:52:28.639Z,16.85
2022-08-19T17:54:56.571Z,16.85
2022-08-19T17:57:24.468Z,16.85
2022-08-19T17:59:52.696Z,16.84
2022-08-19T18:02:21.846Z,16.82
2022-08-19T18:04:50.281Z,16.79
2022-08-19T18:07:21.517Z,16.76
2022-08-19T18:09:52.621Z,16.74
2022-08-19T18:12:27.024Z,16.71
2022-08-19T18:14:54.667Z,16.69
2022-08-19T18:17:23.445Z,16.65
2022-08-19T18:19:51.344Z,16.59
2022-08-19T18:22:37.025Z,16.53
2022-08-19T18:25:08.851Z,16.48
2022-08-19T18:27:36.661Z,16.41
2022-08-19T18:30:06.747Z,16.35
2022-08-19T18:32:38.333Z,16.27
2022-08-19T18:35:12.386Z,16.24
2022-08-19T18:37:41.529Z,16.21
2022-08-19T18:40:30.518Z,16.17
2022-08-19T18:43:17.478Z,16.11
2022-08-19T18:46:04.148Z,16.06
2022-08-19T18:48:54.362Z,16.00
2022-08-19T18:51:27.729Z,15.94
2022-08-19T18:53:58.866Z,15.88
2022-08-19T18:56:31.816Z,15.84
2022-08-19T18:59:00.111Z,15.81
2022-08-19T19:01:34.487Z,15.78
2022-08-19T19:04:05.902Z,15.73
2022-08-19T19:06:38.197Z,15.67
2022-08-19T19:09:18.040Z,15.64
2022-08-19T19:11:49.052Z,15.58
2022-08-19T19:14:45.577Z,15.53
2022-08-19T19:17:12.791Z,15.50
2022-08-19T19:19:42.823Z,15.48
2022-08-19T19:22:13.737Z,15.43
2022-08-19T19:24:45.159Z,15.38
2022-08-19T19:27:14.662Z,15.33
2022-08-19T19:29:42.747Z,15.27
2022-08-19T19:32:18.679Z,15.20
2022-08-19T19:34:46.505Z,15.14
2022-08-19T19:37:14.569Z,15.10
2022-08-19T19:39:46.184Z,15.06
2022-08-19T19:42:20.537Z,15.01
2022-08-19T19:44:52.461Z,14.95
2022-08-19T19:47:24.427Z,14.88
2022-08-19T19:50:20.113Z,14.84
2022-08-19T19:52:40.917Z,14.79
2022-08-19T19:55:09.914Z,14.73
2022-08-19T19:57:39.337Z,14.70
2022-08-19T20:00:08.856Z,14.67
2022-08-19T20:02:36.439Z,14.63
2022-08-19T20:05:04.841Z,14.57
2022-08-19T20:07:51.352Z,14.52
2022-08-19T20:10:19.144Z,14.47
2022-08-19T20:12:46.706Z,14.42
2022-08-19T20:15:14.977Z,14.39
2022-08-19T20:17:46.725Z,14.37
2022-08-19T20:20:16.511Z,14.33
2022-08-19T20:22:45.991Z,14.29
2022-08-19T20:25:16.539Z,14.24
2022-08-19T20:27:44.721Z,14.20
2022-08-19T20:30:19.597Z,14.19
2022-08-19T20:32:50.588Z,14.18
2022-08-19T20:35:21.375Z,14.14
2022-08-19T20:37:49.591Z,14.12
2022-08-19T20:40:21.665Z,14.10
2022-08-19T20:42:50.829Z,14.08
2022-08-19T20:45:33.475Z,14.08
2022-08-19T20:48:03.141Z,14.05
2022-08-19T20:50:35.970Z,14.01
2022-08-19T20:53:14.884Z,13.99
2022-08-19T20:55:49.326Z,13.98
2022-08-19T20:58:20.539Z,13.95
2022-08-19T21:00:49.782Z,13.94
2022-08-19T21:03:21.254Z,13.89
2022-08-19T21:05:49.306Z,13.87
2022-08-19T21:08:20.157Z,13.85
2022-08-19T21:10:49.313Z,13.82
2022-08-19T21:13:18.207Z,13.78
2022-08-19T21:15:46.784Z,13.77
2022-08-19T21:18:16.335Z,13.77
2022-08-19T21:20:45.295Z,13.77
2022-08-19T21:23:16.775Z,13.80
2022-08-19T21:25:52.996Z,13.82
2022-08-19T21:28:34.608Z,13.84
2022-08-19T21:31:06.293Z,13.86
2022-08-19T21:33:34.233Z,13.88
2022-08-19T21:36:02.635Z,13.88
2022-08-19T21:38:30.778Z,13.83
2022-08-19T21:40:58.423Z,13.75
2022-08-19T21:43:26.661Z,13.72
2022-08-19T21:45:54.240Z,13.73
2022-08-19T21:48:21.985Z,13.72
2022-08-19T21:50:50.904Z,13.68
2022-08-19T21:53:19.218Z,13.64
2022-08-19T21:55:53.473Z,13.63
2022-08-19T21:58:28.264Z,13.64
2022-08-19T22:00:59.267Z,13.61
2022-08-19T22:03:27.609Z,13.59
2022-08-19T22:05:55.218Z,13.57
2022-08-19T22:08:22.841Z,13.54
2022-08-19T22:10:50.848Z,13.49
2022-08-19T22:13:20.244Z,13.48
2022-08-19T22:15:50.436Z,13.44
2022-08-19T22:18:19.064Z,13.38
2022-08-19T22:20:47.964Z,13.35
2022-08-19T22:23:15.690Z,13.33
2022-08-19T22:25:46.117Z,13.31
2022-08-19T22:28:18.841Z,13.25
2022-08-19T22:30:56.392Z,13.18
2022-08-19T22:33:25.770Z,13.13
2022-08-19T22:35:53.936Z,13.09
2022-08-19T22:38:22.652Z,13.06
2022-08-19T22:40:51.876Z,13.04
2022-08-19T22:43:22.946Z,13.04
2022-08-19T22:45:53.320Z,13.02
2022-08-19T22:48:23.340Z,12.98
2022-08-19T22:51:11.055Z,12.95
2022-08-19T22:53:42.556Z,12.94
2022-08-19T22:56:15.068Z,12.91
2022-08-19T22:58:43.746Z,12.89
2022-08-19T23:01:14.698Z,12.88
2022-08-19T23:03:56.483Z,12.89
2022-08-19T23:06:26.949Z,12.89
2022-08-19T23:09:01.370Z,12.90
2022-08-19T23:11:29.447Z,12.93
2022-08-19T23:13:56.993Z,12.95
2022-08-19T23:16:24.817Z,12.99
2022-08-19T23:18:54.393Z,13.01
2022-08-19T23:21:24.821Z,13.04
2022-08-19T23:23:53.688Z,13.08
2022-08-19T23:26:21.634Z,13.10
2022-08-19T23:29:07.876Z,13.14
2022-08-19T23:31:36.403Z,13.21
2022-08-19T23:34:04.553Z,13.24
2022-08-19T23:36:32.141Z,13.23
2022-08-19T23:39:00.860Z,13.23
2022-08-19T23:41:28.511Z,13.22
2022-08-19T23:43:56.068Z,13.26
2022-08-19T23:46:28.323Z,13.31
2022-08-19T23:48:57.481Z,13.27
2022-08-19T23:51:26.431Z,13.27
2022-08-19T23:53:54.214Z,13.25
2022-08-19T23:56:22.307Z,13.13
2022-08-19T23:58:49.844Z,13.01
